createdAt,value
2019-03-04T00:00:20.969Z,2.6
2019-03-04T00:05:26.287Z,2.7
2019-03-04T00:10:31.795Z,2.6
2019-03-04T00:15:37.690Z,2.6
2019-03-04T00:20:43.750Z,2.6
2019-03-04T00:25:49.281Z,2.6
2019-03-04T00:30:57.002Z,2.9
2019-03-04T00:36:02.513Z,2.9
2019-03-04T00:41:08.113Z,2.5
2019-03-04T00:46:13.853Z,2.8
2019-03-04T00:51:19.524Z,2.6
2019-03-04T00:56:25.215Z,2.6
2019-03-04T01:01:30.857Z,2.6
2019-03-04T01:06:36.535Z,2.7
2019-03-04T01:11:42.806Z,2.7
2019-03-04T01:16:48.592Z,2.5
2019-03-04T01:21:54.760Z,2.7
2019-03-04T01:26:59.213Z,2.5
2019-03-04T01:32:04.921Z,2.4
2019-03-04T01:37:10.240Z,2.5
2019-03-04T01:42:16.304Z,2.4
2019-03-04T01:47:22.205Z,2.3
2019-03-04T01:52:27.559Z,2.7
2019-03-04T01:57:33.525Z,2.5
2019-03-04T02:02:39.817Z,2.4
2019-03-04T02:07:45.769Z,2.3
2019-03-04T02:12:51.040Z,2.3
2019-03-04T02:17:56.226Z,2.3
2019-03-04T02:23:01.553Z,2.3
2019-03-04T02:28:07.154Z,2.1
2019-03-04T02:33:12.892Z,2.3
2019-03-04T02:38:18.537Z,2.1
2019-03-04T02:43:24.384Z,2.3
2019-03-04T02:48:29.487Z,2.1
2019-03-04T02:53:34.665Z,2.1
2019-03-04T02:58:40.010Z,2.2
2019-03-04T03:03:46.014Z,2.2
2019-03-04T03:08:51.821Z,2
2019-03-04T03:13:56.238Z,1.9
2019-03-04T03:19:01.981Z,2
2019-03-04T03:24:07.230Z,2.1
2019-03-04T03:29:13.130Z,2.2
2019-03-04T03:34:19.525Z,2
2019-03-04T03:39:25.232Z,2.1
2019-03-04T03:44:30.470Z,2
2019-03-04T03:49:35.421Z,2
2019-03-04T03:54:40.615Z,2
2019-03-04T03:59:45.682Z,1.9
2019-03-04T04:04:50.811Z,1.8
2019-03-04T04:09:56.637Z,2
2019-03-04T04:15:02.615Z,2
2019-03-04T04:20:07.785Z,2
2019-03-04T04:25:13.099Z,2.1
2019-03-04T04:30:18.642Z,2
2019-03-04T04:35:23.887Z,2.1
2019-03-04T04:40:30.021Z,1.8
2019-03-04T04:45:34.502Z,1.8
2019-03-04T04:50:39.943Z,1.7
2019-03-04T04:55:45.800Z,1.7
2019-03-04T05:00:51.135Z,1.8
2019-03-04T05:05:57.122Z,1.6
2019-03-04T05:11:03.130Z,1.6
2019-03-04T05:16:08.338Z,1.6
2019-03-04T05:21:13.464Z,1.5
2019-03-04T05:26:19.535Z,1.6
2019-03-04T05:31:24.741Z,1.5
2019-03-04T05:36:30.031Z,1.6
2019-03-04T05:41:35.396Z,1.6
2019-03-04T05:46:43.147Z,1.5
2019-03-04T05:51:49.068Z,1.9
2019-03-04T05:56:54.843Z,2.1
2019-03-04T06:01:58.472Z,1.9
2019-03-04T06:07:03.678Z,2.2
2019-03-04T06:12:08.794Z,2.3
2019-03-04T06:17:14.951Z,2
2019-03-04T06:22:20.169Z,2.1
2019-03-04T06:27:25.463Z,1.7
2019-03-04T06:32:31.353Z,1.7
2019-03-04T06:37:37.413Z,1.6
2019-03-04T06:42:42.541Z,1.3
2019-03-04T06:47:48.072Z,1.3
2019-03-04T06:52:54.332Z,1.3
2019-03-04T06:58:00.114Z,1.2
2019-03-04T07:03:05.556Z,0.9
2019-03-04T07:08:10.565Z,1
2019-03-04T07:13:16.399Z,1.1
2019-03-04T07:18:22.132Z,1.2
2019-03-04T07:23:27.841Z,1.7
2019-03-04T07:28:33.724Z,1.7
2019-03-04T07:33:39.284Z,1.7
2019-03-04T07:38:43.558Z,1.7
2019-03-04T07:43:48.732Z,2
2019-03-04T07:48:54.854Z,1.9
2019-03-04T07:54:00.538Z,2.1
2019-03-04T07:59:06.149Z,2.5
2019-03-04T08:04:11.866Z,4.3
2019-03-04T08:09:17.842Z,3.6
2019-03-04T08:14:23.615Z,3.4
2019-03-04T08:19:28.974Z,3.3
2019-03-04T08:24:34.848Z,3.4
2019-03-04T08:29:40.509Z,3.2
2019-03-04T08:34:46.490Z,3
2019-03-04T08:39:52.148Z,3.1
2019-03-04T08:44:57.351Z,3.2
2019-03-04T08:50:03.190Z,3
2019-03-04T08:55:09.170Z,3
2019-03-04T09:00:14.065Z,3
2019-03-04T09:05:19.689Z,2.8
2019-03-04T09:10:26.005Z,3.1
2019-03-04T09:15:31.565Z,2.7
2019-03-04T09:20:36.960Z,2.9
2019-03-04T09:25:42.866Z,2.8
2019-03-04T09:30:47.383Z,3.1
2019-03-04T09:35:52.868Z,3.3
2019-03-04T09:40:58.658Z,3.2
2019-03-04T09:46:04.619Z,3.2
2019-03-04T09:51:10.612Z,2.9
2019-03-04T09:56:16.268Z,3.1
2019-03-04T10:01:22.280Z,2.9
2019-03-04T10:06:26.603Z,3.1
2019-03-04T10:11:32.670Z,2.9
2019-03-04T10:16:37.932Z,2.9
2019-03-04T10:21:43.881Z,3.1
2019-03-04T10:26:49.073Z,3.1
2019-03-04T10:31:54.838Z,3
2019-03-04T10:37:00.260Z,2.9
2019-03-04T10:42:06.270Z,3.1
2019-03-04T10:47:11.725Z,3
2019-03-04T10:52:18.007Z,2.9
2019-03-04T10:57:23.418Z,6.8
2019-03-04T11:02:28.460Z,17.4
2019-03-04T11:07:34.269Z,17.1
2019-03-04T11:12:39.447Z,17.1
2019-03-04T11:17:45.035Z,15
2019-03-04T11:22:51.259Z,14.8
2019-03-04T11:27:56.468Z,13.5
2019-03-04T11:33:02.759Z,12.7
2019-03-04T11:38:08.484Z,12.2
2019-03-04T11:43:13.627Z,11.6
2019-03-04T11:48:18.831Z,11.7
2019-03-04T11:53:24.546Z,10.2
2019-03-04T11:58:29.873Z,9.3
2019-03-04T12:03:34.449Z,9.7
2019-03-04T12:08:39.911Z,9.4
2019-03-04T12:13:43.464Z,8.7
2019-03-04T12:18:48.639Z,8.2
2019-03-04T12:23:54.541Z,7.3
2019-03-04T12:29:00.110Z,7.6
2019-03-04T12:34:05.877Z,6.9
2019-03-04T12:39:11.538Z,6.5
2019-03-04T12:44:17.816Z,6.1
2019-03-04T12:49:22.908Z,6.1
2019-03-04T12:54:28.455Z,5.9
2019-03-04T12:59:34.316Z,5.6
2019-03-04T13:04:34.970Z,5.1
2019-03-04T13:09:40.649Z,5.2
2019-03-04T13:14:47.223Z,4.9
2019-03-04T13:19:52.892Z,5.1
2019-03-04T13:24:58.561Z,4.8
2019-03-04T13:30:04.557Z,4.5
2019-03-04T13:35:10.518Z,4.5
2019-03-04T13:40:16.699Z,4.5
2019-03-04T13:45:22.465Z,4.5
2019-03-04T13:50:26.611Z,4.4
2019-03-04T13:55:32.662Z,4.4
2019-03-04T14:00:37.942Z,4.1
2019-03-04T14:05:43.922Z,4.1
2019-03-04T14:10:49.779Z,3.9
2019-03-04T14:15:55.392Z,4.1
2019-03-04T14:21:00.928Z,4.3
2019-03-04T14:26:06.964Z,6.6
2019-03-04T14:31:12.476Z,7.6
2019-03-04T14:36:18.848Z,7.6
2019-03-04T14:41:24.209Z,7.6
2019-03-04T14:46:28.792Z,7.7
2019-03-04T14:51:34.597Z,7.5
2019-03-04T14:56:40.512Z,7.6
2019-03-04T15:01:46.714Z,7.5
2019-03-04T15:06:52.499Z,7.8
2019-03-04T15:11:58.219Z,7.4
2019-03-04T15:17:04.858Z,7.6
2019-03-04T15:22:10.218Z,7.6
2019-03-04T15:27:15.539Z,7.2
2019-03-04T15:32:22.610Z,6.9
2019-03-04T15:37:29.024Z,7.1
2019-03-04T15:42:30.093Z,7.2
2019-03-04T15:47:37.605Z,7.2
2019-03-04T15:52:41.831Z,6.4
2019-03-04T15:57:52.062Z,7
2019-03-04T16:02:57.671Z,6.7
2019-03-04T16:08:08.673Z,6.7
2019-03-04T16:13:04.600Z,6.5
2019-03-04T16:18:10.374Z,6.2
2019-03-04T16:23:15.894Z,6.4
2019-03-04T16:28:21.893Z,6.4
2019-03-04T16:33:26.820Z,6.6
2019-03-04T16:38:32.465Z,6.4
2019-03-04T16:43:37.642Z,6.6
2019-03-04T16:48:41.462Z,6.2
2019-03-04T16:53:46.700Z,6.3
2019-03-04T16:58:52.140Z,5.3
2019-03-04T17:03:57.126Z,4.7
2019-03-04T17:09:02.653Z,4.1
2019-03-04T17:14:07.850Z,3.7
2019-03-04T17:19:13.513Z,3.2
2019-03-04T17:24:18.996Z,3.2
2019-03-04T17:29:24.408Z,3.4
2019-03-04T17:34:30.168Z,3.3
2019-03-04T17:39:35.525Z,3
2019-03-04T17:44:41.013Z,3.7
2019-03-04T17:49:46.249Z,3.2
2019-03-04T17:54:51.345Z,3.4
2019-03-04T17:59:57.029Z,2.8
2019-03-04T18:05:02.577Z,2.8
2019-03-04T18:10:08.029Z,3.3
2019-03-04T18:15:13.108Z,2.9
2019-03-04T18:20:18.265Z,2.7
2019-03-04T18:25:23.935Z,2.8
2019-03-04T18:30:29.594Z,2.8
2019-03-04T18:35:34.967Z,2.4
2019-03-04T18:40:40.830Z,2.8
2019-03-04T18:45:46.602Z,2.5
2019-03-04T18:50:51.885Z,2.4
2019-03-04T18:55:57.197Z,2.3
2019-03-04T19:01:03.196Z,3.2
2019-03-04T19:06:10.289Z,3.4
2019-03-04T19:11:16.323Z,3.2
2019-03-04T19:16:22.047Z,3.4
2019-03-04T19:21:28.942Z,3.1
2019-03-04T19:26:32.190Z,3.4
2019-03-04T19:31:38.381Z,3.1
2019-03-04T19:36:44.136Z,2.9
2019-03-04T19:41:49.774Z,2.7
2019-03-04T19:46:54.019Z,2.3
2019-03-04T19:51:54.976Z,2.5
2019-03-04T19:56:58.481Z,2.1
2019-03-04T20:02:04.249Z,1.9
2019-03-04T20:07:09.364Z,1.8
2019-03-04T20:12:15.190Z,1.9
2019-03-04T20:17:21.188Z,1.6
2019-03-04T20:22:27.142Z,1.8
2019-03-04T20:27:31.595Z,1.5
2019-03-04T20:32:37.554Z,1.5
2019-03-04T20:37:43.105Z,1.4
2019-03-04T20:42:48.896Z,1.2
2019-03-04T20:47:54.747Z,1.3
2019-03-04T20:52:59.925Z,1.4
2019-03-04T20:58:05.119Z,1.6
2019-03-04T21:03:10.873Z,1.5
2019-03-04T21:08:16.667Z,1.3
2019-03-04T21:13:21.144Z,1.2
2019-03-04T21:18:26.741Z,1.4
2019-03-04T21:23:32.502Z,1.7
2019-03-04T21:28:38.098Z,1.6
2019-03-04T21:33:42.202Z,1.4
2019-03-04T21:38:48.233Z,1.8
2019-03-04T21:43:54.096Z,2.1
2019-03-04T21:48:59.053Z,2
2019-03-04T21:54:04.265Z,2.3
2019-03-04T21:59:08.695Z,2.2
2019-03-04T22:04:14.991Z,2
2019-03-04T22:09:20.503Z,2.1
2019-03-04T22:14:26.621Z,2.1
2019-03-04T22:19:31.715Z,2.1
2019-03-04T22:24:36.860Z,2.3
2019-03-04T22:29:42.136Z,2.2
2019-03-04T22:34:48.066Z,2.2
2019-03-04T22:39:53.516Z,2.1
2019-03-04T22:44:58.618Z,2.1
2019-03-04T22:50:06.929Z,2
2019-03-04T22:55:09.789Z,2
2019-03-04T23:00:15.922Z,1.9
2019-03-04T23:05:21.057Z,2.4
2019-03-04T23:10:26.843Z,2.2
2019-03-04T23:15:32.521Z,1.8
2019-03-04T23:20:38.316Z,1.9
2019-03-04T23:25:43.373Z,1.9
2019-03-04T23:30:48.761Z,2.1
2019-03-04T23:35:54.270Z,2
2019-03-04T23:40:59.962Z,1.7
2019-03-04T23:46:05.917Z,1.8
2019-03-04T23:51:11.766Z,1.8
2019-03-04T23:56:17.250Z,1.9
